Time;durP1;ratioP1;P1;durP2;ratioP2;P2;SDS_P1;SDS_P2;PMS_P1;PMS_P2;Temp;Humidity;BMP_temperature;BMP_pressure;BME280_temperature;BME280_humidity;BME280_pressure;Samples;Min_cycle;Max_cycle;Signal;HPM_P1;HPM_P2
2022/08/13 00:01:56;;;;;;;0.50;0.40;;;19.30;69.60;;;;;;5113783;28;20514;-77
2022/08/13 00:04:26;;;;;;;0.60;0.60;;;19.30;69.50;;;;;;5113491;28;20946;-77
2022/08/13 00:09:37;;;;;;;2.10;0.50;;;19.30;69.90;;;;;;5116103;28;20484;-77
2022/08/13 00:14:50;;;;;;;0.67;0.67;;;19.30;70.80;;;;;;5118007;28;20496;-77
2022/08/13 00:17:18;;;;;;;0.60;0.60;;;19.30;70.30;;;;;;5117955;27;20469;-78
2022/08/13 00:19:48;;;;;;;0.50;0.50;;;19.30;70.60;;;;;;5117856;28;20447;-77
2022/08/13 00:22:25;;;;;;;0.40;0.40;;;19.20;70.90;;;;;;5118325;28;20467;-77
2022/08/13 00:24:53;;;;;;;0.80;0.50;;;19.30;71.00;;;;;;5117858;28;20427;-77
2022/08/13 00:27:22;;;;;;;0.60;0.60;;;19.20;71.60;;;;;;5117753;28;20434;-77
2022/08/13 00:29:49;;;;;;;0.60;0.60;;;19.20;72.30;;;;;;5117702;28;20486;-77
2022/08/13 00:32:21;;;;;;;0.50;0.40;;;19.20;72.40;;;;;;5117669;28;20442;-77
2022/08/13 00:34:49;;;;;;;0.70;0.70;;;19.20;72.70;;;;;;5117566;28;20524;-77
2022/08/13 00:37:16;;;;;;;0.63;0.53;;;19.10;72.60;;;;;;5117267;28;20443;-77
2022/08/13 00:39:42;;;;;;;0.60;0.60;;;19.10;73.40;;;;;;5117195;28;20449;-77
2022/08/13 00:42:10;;;;;;;0.73;0.70;;;19.00;73.90;;;;;;5117380;28;20473;-77
2022/08/13 00:44:39;;;;;;;0.70;0.50;;;19.00;74.10;;;;;;5117406;27;20439;-77
2022/08/13 00:49:52;;;;;;;0.50;0.50;;;18.90;73.50;;;;;;5099417;28;20423;-77
2022/08/13 00:52:19;;;;;;;1.03;0.67;;;18.80;73.50;;;;;;5117270;27;20439;-77
2022/08/13 00:54:49;;;;;;;0.60;0.50;;;18.70;73.60;;;;;;5117147;28;20474;-77
2022/08/13 00:57:17;;;;;;;0.57;0.50;;;18.70;73.90;;;;;;5117200;28;20442;-77
2022/08/13 00:59:46;;;;;;;0.60;0.60;;;18.60;74.30;;;;;;5117155;28;20447;-77
2022/08/13 01:02:14;;;;;;;2.20;0.70;;;18.60;74.60;;;;;;5116986;28;20467;-77
2022/08/13 01:04:42;;;;;;;0.40;0.40;;;18.50;75.00;;;;;;5117054;28;20439;-77
2022/08/13 01:07:09;;;;;;;0.70;0.50;;;18.40;75.00;;;;;;5117013;28;20553;-77
2022/08/13 01:09:37;;;;;;;0.63;0.50;;;18.40;75.50;;;;;;5116970;28;20458;-77
2022/08/13 01:12:09;;;;;;;1.47;0.60;;;18.30;75.70;;;;;;5116398;28;20482;-78
2022/08/13 01:14:38;;;;;;;0.60;0.60;;;18.30;76.30;;;;;;5116791;28;20469;-78
2022/08/13 01:17:05;;;;;;;0.40;0.40;;;18.20;76.20;;;;;;5116410;28;20497;-78
2022/08/13 01:19:34;;;;;;;1.10;0.67;;;18.10;76.40;;;;;;5116753;28;20466;-78
2022/08/13 01:22:04;;;;;;;0.60;0.50;;;18.10;76.80;;;;;;5116670;28;20515;-77
2022/08/13 01:24:31;;;;;;;0.50;0.50;;;18.00;77.20;;;;;;5116689;28;20439;-77
2022/08/13 01:26:58;;;;;;;0.93;0.70;;;17.90;77.30;;;;;;5116612;28;20581;-77
2022/08/13 01:29:26;;;;;;;0.70;0.60;;;17.90;77.50;;;;;;5116586;28;20443;-78
2022/08/13 01:31:54;;;;;;;0.40;0.40;;;17.90;77.70;;;;;;5116467;28;20485;-77
2022/08/13 01:34:22;;;;;;;0.80;0.40;;;17.90;77.40;;;;;;5116381;28;20478;-78
2022/08/13 01:36:50;;;;;;;0.47;0.47;;;17.90;77.20;;;;;;5116433;28;20486;-77
2022/08/13 01:39:18;;;;;;;0.60;0.50;;;17.90;77.40;;;;;;5116393;28;20451;-78
2022/08/13 01:41:46;;;;;;;1.03;0.50;;;17.90;77.10;;;;;;5115955;28;20829;-78
2022/08/13 01:44:14;;;;;;;0.80;0.43;;;18.00;77.60;;;;;;5115979;28;20439;-78
2022/08/13 01:52:12;;;;;;;0.60;0.57;;;18.00;77.50;;;;;;5116150;28;20442;-78
2022/08/13 01:54:41;;;;;;;0.40;0.40;;;18.10;76.90;;;;;;5115714;27;20843;-77
2022/08/13 01:57:10;;;;;;;0.87;0.67;;;18.00;77.90;;;;;;5116027;28;20450;-77
2022/08/13 01:59:39;;;;;;;0.60;0.50;;;17.90;77.40;;;;;;5116018;28;20804;-77
2022/08/13 02:02:10;;;;;;;0.40;0.40;;;17.90;77.10;;;;;;5115862;28;20489;-78
2022/08/13 02:04:38;;;;;;;1.00;0.60;;;18.00;77.80;;;;;;5115907;28;20439;-78
2022/08/13 02:07:07;;;;;;;2.30;1.03;;;17.90;78.20;;;;;;5115553;27;20926;-78
2022/08/13 02:09:34;;;;;;;1.80;1.03;;;17.90;78.60;;;;;;5115442;28;20942;-78
2022/08/13 02:12:02;;;;;;;0.50;0.50;;;17.90;79.20;;;;;;5115238;28;20490;-78
2022/08/13 02:14:30;;;;;;;0.50;0.50;;;17.90;79.50;;;;;;5115361;28;21024;-77
2022/08/13 02:16:56;;;;;;;0.50;0.50;;;17.80;79.50;;;;;;5115648;28;20475;-77
2022/08/13 02:19:23;;;;;;;0.70;0.67;;;17.80;80.00;;;;;;5115578;28;20450;-77
2022/08/13 02:21:51;;;;;;;0.83;0.60;;;17.80;80.20;;;;;;5115182;28;20467;-77
2022/08/13 02:24:17;;;;;;;0.77;0.53;;;17.70;80.00;;;;;;5115206;28;21009;-77
2022/08/13 02:26:45;;;;;;;0.60;0.50;;;17.70;80.50;;;;;;5115464;28;20438;-77
2022/08/13 02:29:14;;;;;;;0.40;0.30;;;17.60;80.40;;;;;;5114529;28;20542;-77
2022/08/13 02:31:42;;;;;;;0.43;0.40;;;17.60;80.80;;;;;;5115034;28;20922;-78
2022/08/13 02:34:11;;;;;;;0.50;0.50;;;17.60;81.30;;;;;;5115239;27;20510;-78
2022/08/13 02:36:40;;;;;;;1.00;0.43;;;17.60;81.40;;;;;;5115239;28;20800;-78
2022/08/13 02:39:08;;;;;;;0.80;0.50;;;17.60;81.90;;;;;;5115204;28;20865;-78
2022/08/13 02:41:42;;;;;;;2.00;0.67;;;17.60;81.70;;;;;;5115089;28;20837;-78
2022/08/13 02:44:11;;;;;;;0.70;0.60;;;17.60;81.00;;;;;;5115165;28;20424;-78
2022/08/13 02:46:39;;;;;;;0.90;0.70;;;17.50;81.00;;;;;;5115058;28;20504;-78
2022/08/13 02:49:06;;;;;;;0.40;0.40;;;17.40;81.30;;;;;;5115031;28;20450;-78
2022/08/13 02:51:33;;;;;;;0.50;0.40;;;17.40;81.70;;;;;;5114897;27;20472;-78
2022/08/13 02:54:01;;;;;;;1.03;0.60;;;17.40;81.60;;;;;;5114910;28;20574;-78
2022/08/13 02:56:29;;;;;;;0.80;0.80;;;17.20;82.10;;;;;;5114887;28;20443;-78
2022/08/13 02:58:56;;;;;;;0.50;0.43;;;17.20;82.70;;;;;;5114845;28;20442;-78
2022/08/13 03:01:25;;;;;;;0.60;0.50;;;17.10;83.00;;;;;;5114727;28;20467;-78
2022/08/13 03:03:53;;;;;;;0.40;0.40;;;17.10;83.40;;;;;;5114727;27;20439;-78
2022/08/13 03:06:20;;;;;;;0.40;0.40;;;17.10;83.10;;;;;;5114389;28;20933;-78
2022/08/13 03:08:49;;;;;;;0.50;0.50;;;17.10;83.60;;;;;;5114661;28;20447;-78
2022/08/13 03:11:16;;;;;;;0.57;0.57;;;17.00;83.50;;;;;;5114118;28;20491;-77
2022/08/13 03:13:48;;;;;;;0.67;0.67;;;16.90;83.50;;;;;;5114471;28;20453;-78
2022/08/13 03:16:18;;;;;;;0.70;0.50;;;16.80;83.70;;;;;;5114591;28;20430;-78
2022/08/13 03:18:45;;;;;;;0.67;0.67;;;16.80;83.70;;;;;;5114460;28;20439;-78
2022/08/13 03:21:18;;;;;;;0.40;0.40;;;16.70;83.60;;;;;;5114052;28;20986;-77
2022/08/13 03:23:46;;;;;;;0.50;0.50;;;16.60;83.90;;;;;;5114407;28;20435;-77
2022/08/13 03:26:12;;;;;;;0.40;0.40;;;16.60;83.60;;;;;;5114346;28;20458;-77
2022/08/13 03:28:40;;;;;;;0.60;0.60;;;16.60;83.80;;;;;;5113984;28;20969;-78
2022/08/13 03:31:06;;;;;;;0.40;0.40;;;16.50;83.90;;;;;;5113851;28;20466;-78
2022/08/13 03:33:33;;;;;;;0.80;0.50;;;16.50;83.90;;;;;;5114259;28;20447;-77
2022/08/13 03:36:00;;;;;;;0.60;0.43;;;16.50;84.10;;;;;;5114097;28;20479;-77
2022/08/13 03:38:28;;;;;;;0.60;0.50;;;16.50;84.40;;;;;;5114150;28;20466;-77
2022/08/13 03:41:11;;;;;;;0.40;0.40;;;16.50;84.40;;;;;;5113619;28;20470;-78
2022/08/13 03:43:42;;;;;;;0.57;0.43;;;16.40;84.40;;;;;;5114089;28;20435;-78
2022/08/13 03:46:09;;;;;;;0.50;0.50;;;16.40;84.50;;;;;;5114068;28;20431;-78
2022/08/13 03:48:36;;;;;;;0.70;0.70;;;16.40;84.80;;;;;;5114002;28;20450;-78
2022/08/13 03:51:03;;;;;;;0.60;0.60;;;16.40;85.10;;;;;;5113938;28;20467;-78
2022/08/13 03:53:31;;;;;;;0.50;0.50;;;16.30;85.20;;;;;;5113970;28;20439;-77
2022/08/13 03:55:59;;;;;;;1.00;0.50;;;16.30;84.90;;;;;;5113854;28;20474;-77
2022/08/13 03:58:28;;;;;;;0.30;0.30;;;16.30;85.60;;;;;;5113606;28;20485;-78
2022/08/13 04:00:56;;;;;;;0.70;0.60;;;16.30;85.50;;;;;;5113484;28;20467;-78
2022/08/13 04:03:25;;;;;;;0.50;0.50;;;16.20;85.40;;;;;;5113866;28;20546;-78
2022/08/13 04:05:54;;;;;;;0.53;0.53;;;16.20;85.90;;;;;;5113833;28;20435;-78
2022/08/13 04:08:21;;;;;;;0.60;0.60;;;16.20;85.60;;;;;;5113505;28;20442;-78
2022/08/13 04:10:50;;;;;;;0.83;0.60;;;16.20;86.00;;;;;;5113400;28;20486;-78
2022/08/13 04:13:17;;;;;;;0.60;0.60;;;16.20;86.20;;;;;;5113788;28;20512;-78
2022/08/13 04:15:46;;;;;;;0.43;0.43;;;16.10;86.30;;;;;;5113657;28;20478;-78
2022/08/13 04:18:13;;;;;;;0.90;0.70;;;16.10;86.60;;;;;;5113668;28;20477;-77
2022/08/13 04:20:41;;;;;;;0.73;0.73;;;16.10;86.50;;;;;;5113630;28;20929;-78
2022/08/13 04:23:14;;;;;;;1.07;0.97;;;16.10;86.60;;;;;;5113712;28;20443;-78
2022/08/13 04:25:42;;;;;;;0.73;0.60;;;16.10;87.00;;;;;;5114521;28;20477;-78
2022/08/13 04:28:11;;;;;;;3.70;0.60;;;16.00;86.40;;;;;;5113575;28;20500;-78
2022/08/13 04:30:41;;;;;;;0.50;0.40;;;16.10;86.40;;;;;;5113209;28;20474;-78
2022/08/13 04:33:10;;;;;;;0.40;0.40;;;16.00;86.70;;;;;;5113263;28;20447;-77
2022/08/13 04:35:38;;;;;;;1.57;0.60;;;15.90;86.80;;;;;;5113463;28;20483;-78
2022/08/13 04:38:05;;;;;;;0.60;0.60;;;15.90;86.90;;;;;;5113560;28;20446;-78
2022/08/13 04:40:34;;;;;;;0.90;0.53;;;15.90;87.00;;;;;;5113469;28;20522;-78
2022/08/13 04:43:00;;;;;;;0.63;0.50;;;15.90;87.50;;;;;;5113500;28;20447;-78
2022/08/13 04:45:30;;;;;;;0.50;0.50;;;15.80;87.30;;;;;;5113477;28;20439;-77
2022/08/13 04:47:59;;;;;;;0.87;0.50;;;15.90;87.60;;;;;;5113740;28;20454;-78
2022/08/13 04:50:26;;;;;;;1.27;0.47;;;15.80;87.60;;;;;;5113368;28;20507;-78
2022/08/13 04:52:53;;;;;;;0.40;0.40;;;15.80;87.80;;;;;;5115995;28;20447;-78
2022/08/13 04:55:20;;;;;;;0.53;0.53;;;15.90;88.20;;;;;;5117223;28;20471;-79
2022/08/13 04:57:48;;;;;;;0.60;0.60;;;15.90;88.50;;;;;;5116930;28;20938;-79
2022/08/13 05:00:16;;;;;;;0.97;0.50;;;15.90;88.40;;;;;;5116760;28;20977;-79
2022/08/13 05:02:44;;;;;;;1.40;0.53;;;15.90;88.50;;;;;;5117127;28;20431;-79
2022/08/13 05:05:12;;;;;;;0.70;0.50;;;16.00;89.10;;;;;;5116738;28;20446;-79
2022/08/13 05:07:39;;;;;;;1.20;0.53;;;15.90;88.50;;;;;;5117031;28;20443;-79
2022/08/13 05:10:07;;;;;;;1.33;0.60;;;16.00;88.90;;;;;;5116555;28;20470;-79
2022/08/13 05:12:38;;;;;;;0.67;0.67;;;16.00;88.40;;;;;;5116884;28;20789;-78
2022/08/13 05:15:06;;;;;;;0.63;0.57;;;16.10;88.30;;;;;;5116658;28;20510;-77
2022/08/13 05:17:33;;;;;;;0.40;0.40;;;16.10;88.80;;;;;;5116477;28;20443;-77
2022/08/13 05:20:01;;;;;;;2.10;0.70;;;16.10;88.80;;;;;;5116693;28;20499;-77
2022/08/13 05:22:29;;;;;;;0.70;0.70;;;16.10;88.70;;;;;;5116733;28;20442;-77
2022/08/13 05:24:56;;;;;;;0.80;0.50;;;16.10;89.20;;;;;;5116666;28;20483;-77
2022/08/13 05:27:23;;;;;;;0.60;0.50;;;16.20;89.30;;;;;;5116584;28;20447;-77
2022/08/13 05:29:50;;;;;;;0.80;0.80;;;16.20;89.30;;;;;;5116232;28;20435;-77
2022/08/13 05:32:17;;;;;;;0.50;0.50;;;16.30;89.40;;;;;;5116126;28;20458;-77
2022/08/13 05:34:44;;;;;;;0.40;0.40;;;16.40;90.00;;;;;;5116059;28;21001;-77
2022/08/13 05:37:16;;;;;;;0.67;0.50;;;16.50;90.10;;;;;;5116416;28;20447;-77
2022/08/13 05:39:43;;;;;;;0.73;0.70;;;16.40;88.70;;;;;;5116083;28;20828;-77
2022/08/13 05:42:10;;;;;;;0.60;0.50;;;16.50;89.60;;;;;;5116254;28;20459;-77
2022/08/13 05:44:37;;;;;;;0.50;0.50;;;16.50;89.50;;;;;;5115854;27;20984;-77
2022/08/13 05:47:04;;;;;;;0.50;0.50;;;16.50;89.70;;;;;;5116134;28;20849;-77
2022/08/13 05:49:33;;;;;;;1.37;0.60;;;16.60;89.80;;;;;;5116076;28;20443;-77
2022/08/13 05:52:01;;;;;;;2.73;0.57;;;16.70;89.40;;;;;;5115982;28;20466;-77
2022/08/13 05:54:31;;;;;;;0.60;0.60;;;16.80;89.50;;;;;;5115937;28;20451;-77
2022/08/13 05:56:58;;;;;;;1.37;0.67;;;16.80;89.00;;;;;;5115928;28;20451;-77
2022/08/13 06:04:57;;;;;;;0.80;0.80;;;17.40;87.50;;;;;;5115005;28;20760;-77
2022/08/13 06:07:24;;;;;;;1.00;0.50;;;17.60;86.90;;;;;;5115544;28;20846;-77
2022/08/13 06:09:52;;;;;;;2.10;0.57;;;17.80;86.60;;;;;;5115319;28;20925;-78
2022/08/13 06:12:19;;;;;;;0.73;0.73;;;18.00;85.60;;;;;;5115810;28;20424;-77
2022/08/13 06:14:45;;;;;;;0.40;0.40;;;18.30;85.50;;;;;;5115598;28;20435;-77
2022/08/13 06:17:14;;;;;;;0.60;0.50;;;18.40;85.00;;;;;;5115690;27;20795;-77
2022/08/13 06:19:44;;;;;;;0.73;0.50;;;18.70;84.70;;;;;;5115324;28;20439;-77
2022/08/13 06:22:13;;;;;;;0.40;0.40;;;18.80;84.20;;;;;;5115517;28;20875;-77
2022/08/13 06:24:40;;;;;;;0.53;0.50;;;18.90;83.90;;;;;;5115479;28;20443;-83
2022/08/13 06:27:11;;;;;;;2.03;0.70;;;19.10;82.90;;;;;;5115434;28;20447;-77
2022/08/13 06:29:41;;;;;;;0.70;0.70;;;19.30;83.00;;;;;;5115455;28;20443;-77
2022/08/13 06:32:11;;;;;;;1.20;0.67;;;19.40;82.60;;;;;;5115353;28;20467;-77
2022/08/13 06:34:38;;;;;;;0.60;0.60;;;19.60;81.20;;;;;;5114935;28;20791;-77
2022/08/13 06:37:05;;;;;;;0.83;0.83;;;19.70;80.50;;;;;;5115296;28;20447;-77
2022/08/13 06:39:36;;;;;;;0.70;0.60;;;19.70;80.90;;;;;;5115282;28;20437;-77
2022/08/13 06:42:05;;;;;;;0.80;0.73;;;19.70;81.20;;;;;;5115711;28;20463;-77
2022/08/13 06:44:34;;;;;;;0.67;0.67;;;19.90;80.70;;;;;;5115105;28;20450;-77
2022/08/13 06:47:03;;;;;;;7.60;1.43;;;20.10;80.60;;;;;;5114765;28;20938;-77
2022/08/13 06:49:30;;;;;;;2.10;0.90;;;20.40;79.90;;;;;;5114734;27;20451;-77
2022/08/13 06:51:57;;;;;;;1.10;0.73;;;20.60;80.00;;;;;;5114904;28;20467;-77
2022/08/13 06:54:25;;;;;;;1.87;1.10;;;20.80;80.00;;;;;;5114946;28;20885;-77
2022/08/13 06:56:53;;;;;;;0.60;0.60;;;20.90;81.10;;;;;;5114849;28;20479;-78
2022/08/13 06:59:20;;;;;;;1.60;0.80;;;21.10;79.70;;;;;;5114894;28;20866;-77
2022/08/13 07:01:49;;;;;;;1.43;0.80;;;21.30;79.00;;;;;;5114787;28;20470;-78
2022/08/13 07:04:19;;;;;;;0.70;0.60;;;21.40;78.80;;;;;;5114808;28;20453;-78
2022/08/13 07:06:48;;;;;;;0.50;0.50;;;21.50;78.80;;;;;;5114458;28;20431;-78
2022/08/13 07:09:17;;;;;;;2.40;0.70;;;21.60;78.40;;;;;;5114394;28;20930;-78
2022/08/13 07:11:44;;;;;;;0.60;0.60;;;21.80;77.90;;;;;;5114184;28;20551;-78
2022/08/13 07:14:12;;;;;;;0.70;0.70;;;22.00;76.20;;;;;;5114285;28;20482;-78
2022/08/13 07:16:40;;;;;;;0.50;0.50;;;22.20;75.70;;;;;;5114116;28;20572;-78
2022/08/13 07:19:10;;;;;;;0.80;0.70;;;22.40;75.90;;;;;;5114217;28;20851;-78
2022/08/13 07:21:37;;;;;;;0.70;0.70;;;22.50;76.30;;;;;;5114664;28;20462;-80
2022/08/13 07:24:04;;;;;;;0.67;0.67;;;22.70;74.20;;;;;;5114149;28;20434;-82
2022/08/13 07:26:33;;;;;;;0.93;0.70;;;22.90;74.00;;;;;;5114435;28;20439;-78
2022/08/13 07:29:02;;;;;;;2.20;0.77;;;23.00;73.80;;;;;;5114931;28;20454;-78
2022/08/13 07:31:30;;;;;;;0.80;0.80;;;23.10;73.70;;;;;;5113885;28;20473;-78
2022/08/13 07:33:59;;;;;;;1.40;0.80;;;23.20;73.50;;;;;;5114224;28;20450;-78
2022/08/13 07:36:29;;;;;;;1.53;0.80;;;23.40;72.70;;;;;;5114121;28;20855;-78
2022/08/13 07:38:57;;;;;;;1.20;0.70;;;23.50;73.00;;;;;;5114079;28;20430;-78
2022/08/13 07:41:24;;;;;;;0.70;0.70;;;23.50;73.90;;;;;;5114047;28;20462;-78
2022/08/13 07:43:51;;;;;;;0.70;0.70;;;23.60;73.10;;;;;;5114113;27;20446;-78
2022/08/13 07:46:19;;;;;;;0.63;0.63;;;23.70;72.60;;;;;;5113794;28;20204;-78
2022/08/13 07:48:49;;;;;;;1.93;0.80;;;23.80;72.30;;;;;;5114035;28;20446;-78
2022/08/13 07:51:19;;;;;;;0.80;0.70;;;24.00;71.00;;;;;;5114004;28;20225;-78
2022/08/13 07:53:48;;;;;;;1.03;0.70;;;24.10;70.90;;;;;;5114044;28;20658;-78
2022/08/13 07:56:21;;;;;;;1.00;0.90;;;24.10;71.20;;;;;;5113886;28;20301;-78
2022/08/13 07:58:47;;;;;;;0.70;0.70;;;24.20;71.60;;;;;;5113976;28;20188;-78
2022/08/13 08:01:14;;;;;;;1.37;0.80;;;24.20;71.20;;;;;;5113837;28;20577;-78
2022/08/13 08:03:45;;;;;;;0.60;0.60;;;24.20;70.20;;;;;;5113887;28;20200;-78
2022/08/13 08:06:14;;;;;;;0.63;0.63;;;24.50;68.80;;;;;;5113608;28;20181;-78
2022/08/13 08:08:42;;;;;;;0.80;0.77;;;24.70;69.40;;;;;;5113554;28;20671;-79
2022/08/13 08:12:30;;;;;;;0.80;0.80;;;24.90;69.40;;;;;;5113346;28;20279;-78
2022/08/13 08:13:59;;;;;;;0.63;0.63;;;25.20;68.40;;;;;;5113320;28;20227;-78
2022/08/13 08:16:29;;;;;;;0.80;0.80;;;25.40;65.00;;;;;;5113674;28;20692;-78
2022/08/13 08:18:56;;;;;;;0.70;0.70;;;25.50;66.60;;;;;;5113735;28;20196;-79
2022/08/13 08:21:24;;;;;;;0.70;0.70;;;25.50;66.40;;;;;;5113656;28;20590;-78
2022/08/13 08:23:52;;;;;;;1.25;1.08;;;25.40;65.80;;;;;;5113699;28;20266;-79
2022/08/13 08:26:20;;;;;;;0.80;0.80;;;25.50;66.60;;;;;;5113787;28;20204;-79
2022/08/13 08:28:47;;;;;;;0.60;0.60;;;25.60;66.10;;;;;;5117837;27;20563;-78
2022/08/13 08:31:14;;;;;;;0.70;0.70;;;25.80;65.20;;;;;;5117704;28;20220;-79
2022/08/13 08:33:42;;;;;;;0.80;0.70;;;25.90;65.30;;;;;;5117669;28;20601;-78
2022/08/13 08:36:11;;;;;;;1.80;1.00;;;26.00;65.20;;;;;;5117234;28;20251;-78
2022/08/13 08:44:23;;;;;;;0.65;0.65;;;26.20;63.60;;;;;;5117597;28;20191;-79
2022/08/13 08:46:51;;;;;;;0.85;0.77;;;26.30;62.70;;;;;;5117461;28;20181;-79
2022/08/13 08:49:21;;;;;;;0.60;0.60;;;26.30;63.20;;;;;;5117423;28;20242;-78
2022/08/13 08:51:50;;;;;;;1.00;0.80;;;26.30;63.20;;;;;;5117039;28;20658;-78
2022/08/13 08:54:17;;;;;;;0.60;0.60;;;26.40;63.00;;;;;;5117344;28;20200;-78
2022/08/13 08:56:46;;;;;;;0.60;0.60;;;26.40;61.70;;;;;;5117223;28;20302;-79
2022/08/13 08:59:13;;;;;;;1.98;0.73;;;26.40;62.20;;;;;;5116983;28;20219;-78
2022/08/13 09:01:40;;;;;;;1.27;1.02;;;26.40;61.50;;;;;;5117068;28;20256;-79
2022/08/13 09:04:09;;;;;;;0.70;0.70;;;26.20;61.90;;;;;;5117126;28;20201;-79
2022/08/13 09:06:36;;;;;;;0.70;0.70;;;26.10;62.70;;;;;;5116735;28;20672;-78
2022/08/13 09:09:06;;;;;;;2.15;0.75;;;26.00;63.40;;;;;;5116987;28;20206;-79
2022/08/13 09:11:34;;;;;;;0.60;0.60;;;26.00;65.00;;;;;;5116472;28;20281;-78
2022/08/13 09:14:08;;;;;;;1.13;0.80;;;26.00;62.30;;;;;;5116641;28;20254;-79
2022/08/13 09:16:37;;;;;;;0.50;0.50;;;25.80;62.60;;;;;;5116540;28;20208;-79
2022/08/13 09:19:04;;;;;;;1.90;0.73;;;25.70;62.60;;;;;;5116589;28;20695;-77
2022/08/13 09:21:31;;;;;;;0.80;0.80;;;25.40;63.80;;;;;;5116398;28;20708;-78
2022/08/13 09:24:01;;;;;;;1.17;1.08;;;25.30;64.20;;;;;;5116753;27;20204;-78
2022/08/13 09:26:28;;;;;;;1.35;1.35;;;25.10;64.20;;;;;;5116716;28;20617;-79
2022/08/13 09:28:57;;;;;;;0.68;0.60;;;24.90;64.50;;;;;;5116636;28;20204;-79
2022/08/13 09:31:26;;;;;;;1.00;0.60;;;24.90;65.30;;;;;;5116253;28;20704;-79
2022/08/13 09:33:53;;;;;;;0.60;0.60;;;24.80;65.80;;;;;;5116303;28;20204;-79
2022/08/13 09:36:22;;;;;;;1.35;0.68;;;24.80;65.90;;;;;;5117255;28;20603;-79
2022/08/13 09:38:50;;;;;;;0.85;0.85;;;24.80;67.00;;;;;;5116106;28;20300;-80
2022/08/13 09:41:25;;;;;;;0.90;0.80;;;24.90;65.60;;;;;;5116346;27;20220;-79
2022/08/13 09:43:53;;;;;;;0.70;0.68;;;25.00;66.50;;;;;;5116463;28;20188;-80
2022/08/13 09:46:23;;;;;;;0.80;0.65;;;25.10;65.50;;;;;;5115979;28;20201;-81
2022/08/13 09:48:52;;;;;;;0.70;0.70;;;25.10;65.00;;;;;;5116002;28;20234;-81
2022/08/13 09:51:19;;;;;;;1.42;0.70;;;25.20;65.30;;;;;;5115793;28;20265;-81
2022/08/13 09:53:47;;;;;;;1.30;1.08;;;25.20;64.70;;;;;;5116032;28;20209;-82
2022/08/13 09:56:17;;;;;;;0.95;0.93;;;25.10;65.00;;;;;;5116093;27;20224;-81
2022/08/13 09:58:45;;;;;;;1.40;0.60;;;25.00;64.80;;;;;;5116124;28;20201;-81
2022/08/13 10:01:11;;;;;;;1.40;0.70;;;25.00;65.60;;;;;;5116119;28;20223;-81
2022/08/13 10:03:42;;;;;;;1.13;0.60;;;25.10;64.90;;;;;;5116042;28;20309;-81
2022/08/13 10:06:10;;;;;;;0.60;0.60;;;25.40;64.20;;;;;;5115902;28;20177;-81
2022/08/13 10:08:37;;;;;;;1.65;0.80;;;25.70;63.00;;;;;;5115663;28;20665;-81
2022/08/13 10:11:04;;;;;;;1.85;0.82;;;25.90;63.60;;;;;;5115296;28;20239;-82
2022/08/13 10:13:33;;;;;;;1.13;0.68;;;26.00;61.90;;;;;;5115934;28;20213;-88
2022/08/13 10:16:00;;;;;;;0.93;0.70;;;26.10;61.50;;;;;;5115709;28;20212;-83
2022/08/13 10:18:27;;;;;;;0.80;0.70;;;26.40;61.00;;;;;;5115755;28;20241;-79
2022/08/13 10:20:54;;;;;;;0.73;0.73;;;26.60;60.20;;;;;;5115629;28;20277;-78
2022/08/13 10:23:22;;;;;;;0.93;0.60;;;26.50;59.20;;;;;;5115589;28;20201;-79
2022/08/13 10:25:52;;;;;;;0.60;0.60;;;26.30;59.40;;;;;;5115552;28;20201;-78
2022/08/13 10:28:20;;;;;;;1.35;1.02;;;26.10;59.20;;;;;;5115755;28;20197;-79
2022/08/13 10:30:47;;;;;;;0.80;0.60;;;26.10;60.00;;;;;;5115409;28;20307;-79
2022/08/13 10:33:15;;;;;;;0.77;0.70;;;26.20;59.30;;;;;;5115487;28;20204;-79
2022/08/13 10:35:44;;;;;;;0.70;0.70;;;26.30;59.70;;;;;;5115102;28;20732;-79
2022/08/13 10:38:15;;;;;;;0.60;0.60;;;26.40;59.50;;;;;;5115275;28;20213;-78
2022/08/13 10:40:44;;;;;;;0.60;0.60;;;26.70;58.70;;;;;;5114887;28;20591;-79
2022/08/13 10:43:11;;;;;;;0.77;0.77;;;27.10;58.20;;;;;;5114931;28;20679;-79
2022/08/13 10:45:42;;;;;;;0.95;0.95;;;27.10;57.30;;;;;;5115165;28;20200;-79
2022/08/13 10:48:11;;;;;;;0.75;0.63;;;26.80;56.70;;;;;;5114869;28;20663;-79
2022/08/13 10:50:38;;;;;;;0.70;0.70;;;26.50;56.20;;;;;;5114286;28;20633;-79
2022/08/13 10:53:05;;;;;;;0.57;0.57;;;26.40;58.20;;;;;;5115016;28;20200;-79
2022/08/13 10:55:35;;;;;;;1.35;0.63;;;26.50;57.00;;;;;;5114687;28;20687;-79
2022/08/13 10:58:13;;;;;;;1.13;1.02;;;26.30;56.90;;;;;;5114840;28;20311;-79
2022/08/13 11:00:40;;;;;;;0.60;0.60;;;26.20;57.20;;;;;;5115677;28;20236;-78
2022/08/13 11:03:07;;;;;;;0.70;0.70;;;26.10;58.00;;;;;;5114844;28;20214;-79
2022/08/13 11:05:35;;;;;;;0.70;0.70;;;26.00;58.70;;;;;;5114455;28;20570;-78
2022/08/13 11:08:02;;;;;;;0.52;0.52;;;25.90;58.10;;;;;;5114708;28;20203;-78
2022/08/13 11:10:28;;;;;;;1.23;0.60;;;25.80;57.90;;;;;;5114077;28;20726;-79
2022/08/13 11:12:55;;;;;;;0.60;0.55;;;25.70;58.20;;;;;;5114613;28;20204;-78
2022/08/13 11:15:23;;;;;;;1.00;0.80;;;25.60;58.30;;;;;;5114638;28;20191;-79
2022/08/13 11:17:53;;;;;;;1.15;0.88;;;25.50;58.50;;;;;;5114486;28;20227;-78
2022/08/13 11:20:22;;;;;;;2.15;0.80;;;25.40;59.00;;;;;;5114438;28;20221;-78
2022/08/13 11:22:50;;;;;;;1.48;0.70;;;25.40;59.30;;;;;;5114412;27;20230;-81
2022/08/13 11:25:18;;;;;;;0.70;0.70;;;25.40;58.80;;;;;;5114458;28;20196;-79
2022/08/13 11:27:45;;;;;;;0.85;0.60;;;25.30;58.90;;;;;;5114162;28;20564;-79
2022/08/13 11:30:14;;;;;;;0.68;0.68;;;25.40;59.70;;;;;;5114256;28;20200;-79
2022/08/13 11:32:43;;;;;;;0.52;0.52;;;25.40;59.40;;;;;;5113907;28;20668;-79
2022/08/13 11:35:12;;;;;;;0.50;0.50;;;25.40;60.30;;;;;;5114189;28;20200;-79
2022/08/13 11:37:39;;;;;;;0.60;0.60;;;25.70;59.50;;;;;;5113833;28;20698;-78
2022/08/13 11:40:07;;;;;;;0.73;0.73;;;25.80;59.70;;;;;;5114091;28;20223;-79
2022/08/13 11:42:34;;;;;;;0.88;0.80;;;26.10;59.00;;;;;;5114146;28;20204;-78
2022/08/13 11:45:01;;;;;;;0.73;0.73;;;26.30;58.00;;;;;;5113772;28;20717;-79
2022/08/13 11:47:27;;;;;;;0.50;0.50;;;26.30;58.20;;;;;;5114091;28;20208;-79
2022/08/13 11:49:55;;;;;;;0.60;0.60;;;26.50;58.00;;;;;;5113991;28;20229;-79
2022/08/13 11:52:22;;;;;;;0.80;0.60;;;26.50;58.40;;;;;;5114038;28;20200;-79
2022/08/13 11:54:49;;;;;;;0.93;0.82;;;26.60;57.50;;;;;;5113921;28;20197;-79
2022/08/13 11:57:16;;;;;;;1.00;0.90;;;26.80;57.60;;;;;;5113645;27;20715;-79
2022/08/13 11:59:43;;;;;;;0.90;0.90;;;26.90;57.30;;;;;;5113903;28;20207;-78
2022/08/13 12:02:10;;;;;;;0.70;0.70;;;26.80;56.70;;;;;;5113809;28;20224;-79
2022/08/13 12:04:36;;;;;;;2.72;0.73;;;26.80;56.50;;;;;;5113563;28;20702;-79
2022/08/13 12:07:05;;;;;;;1.15;1.05;;;26.80;56.40;;;;;;5113581;28;20672;-79
2022/08/13 12:09:32;;;;;;;0.60;0.60;;;26.70;57.20;;;;;;5113780;28;20204;-78
2022/08/13 12:11:58;;;;;;;0.73;0.60;;;26.70;57.10;;;;;;5113306;28;20266;-78
2022/08/13 12:14:25;;;;;;;0.73;0.73;;;26.80;55.40;;;;;;5113792;28;20205;-78
2022/08/13 12:16:52;;;;;;;0.60;0.60;;;26.90;55.50;;;;;;5113679;28;20216;-78
2022/08/13 12:19:18;;;;;;;0.68;0.68;;;26.80;55.30;;;;;;5113766;28;20205;-78
2022/08/13 12:21:45;;;;;;;0.80;0.65;;;26.80;56.00;;;;;;5113722;28;20251;-78
2022/08/13 12:24:13;;;;;;;0.90;0.90;;;26.80;56.00;;;;;;5113702;28;20224;-78
2022/08/13 12:26:40;;;;;;;0.70;0.70;;;26.80;56.00;;;;;;5113392;28;20203;-78
2022/08/13 12:29:07;;;;;;;0.90;0.90;;;26.80;55.60;;;;;;5113628;28;20209;-78
2022/08/13 12:31:33;;;;;;;0.70;0.60;;;26.80;55.90;;;;;;5113594;28;20224;-78
2022/08/13 12:34:00;;;;;;;0.60;0.60;;;26.70;56.20;;;;;;5113613;28;20205;-78
2022/08/13 12:36:27;;;;;;;1.27;1.17;;;26.60;56.80;;;;;;5113218;28;20207;-78
2022/08/13 12:38:54;;;;;;;0.98;0.65;;;26.50;56.50;;;;;;5113574;28;20196;-79
2022/08/13 12:41:22;;;;;;;0.70;0.70;;;26.40;57.60;;;;;;5113500;28;20220;-79
2022/08/13 12:43:49;;;;;;;1.58;1.02;;;26.40;57.20;;;;;;5113194;28;20692;-78
2022/08/13 12:46:15;;;;;;;1.00;0.90;;;26.50;57.10;;;;;;5113214;28;20212;-79
2022/08/13 12:48:42;;;;;;;0.80;0.80;;;26.50;56.60;;;;;;5113221;28;20200;-78
2022/08/13 12:51:09;;;;;;;0.75;0.70;;;26.60;55.90;;;;;;5113418;28;20228;-78
2022/08/13 12:53:35;;;;;;;0.80;0.80;;;26.60;55.20;;;;;;5113128;28;20679;-78
2022/08/13 12:56:02;;;;;;;0.60;0.60;;;26.60;55.80;;;;;;5113418;28;20208;-78
2022/08/13 12:58:30;;;;;;;1.02;1.02;;;26.50;55.60;;;;;;5113309;28;20317;-78
2022/08/13 13:00:59;;;;;;;0.70;0.70;;;26.60;56.50;;;;;;5112992;28;20227;-79
2022/08/13 13:03:27;;;;;;;0.80;0.80;;;26.60;56.60;;;;;;5113355;28;20207;-78
2022/08/13 13:05:56;;;;;;;0.85;0.85;;;26.50;56.40;;;;;;5113350;28;20196;-78
2022/08/13 13:08:25;;;;;;;0.85;0.85;;;26.60;55.80;;;;;;5113280;28;20197;-78
2022/08/13 13:10:53;;;;;;;0.70;0.70;;;26.70;55.80;;;;;;5112876;28;20236;-78
2022/08/13 13:13:21;;;;;;;1.10;1.00;;;26.90;55.40;;;;;;5114873;28;20205;-78
2022/08/13 13:15:50;;;;;;;0.57;0.57;;;27.00;54.70;;;;;;5116583;28;20564;-78
2022/08/13 13:18:19;;;;;;;0.73;0.70;;;26.90;55.30;;;;;;5116865;28;20711;-79